Abovyan, Armenia
Current Conditions -  °F | °C
As of 10:00 PM on Tuesday 21 Oct 2014 (Local Time) from UDYZ Reporting Station
Clear Clear  
Wind Chill: 45°   Ceiling: Unl
Heat Index: 45°   Visibility: 6mi
Dew Point: 41°   Wind: 2mph
Humidity: 87%   Direction: NA
Pressure: 30"   Gusts: NA
Location:  40.27°N, 44.62°E
Report Text: UDYZ 211700Z VRB01MPS 9999 SKC 07/05 Q1016 R09/000070 NOSIG
Loading
Personal Weather Stations






























Interactive Weather Map New forecast layout! Learn more

10-Day Weather Forecast

Advertisements
Track Severe Weather on mobile